Time;durP1;ratioP1;P1;durP2;ratioP2;P2;SDS_P1;SDS_P2;PMS_P1;PMS_P2;Temp;Humidity;BMP_temperature;BMP_pressure;BME280_temperature;BME280_humidity;BME280_pressure;Samples;Min_cycle;Max_cycle;Signal;HPM_P1;HPM_P2
2022/11/21 00:00:31;;;;;;;14.00;10.60;;;;;;;0.21;100.00;98671.69;6157615;23;20203;-78
2022/11/21 00:03:00;;;;;;;12.87;9.90;;;;;;;0.14;100.00;98664.69;6157994;23;20209;-78
2022/11/21 00:05:28;;;;;;;14.13;10.50;;;;;;;0.12;100.00;98667.47;6157797;23;20214;-79
2022/11/21 00:07:55;;;;;;;13.60;10.57;;;;;;;0.08;100.00;98674.09;6181228;23;20217;-78
2022/11/21 00:10:23;;;;;;;12.53;9.67;;;;;;;0.13;100.00;98684.09;6169717;23;20205;-78
2022/11/21 00:12:54;;;;;;;13.70;9.57;;;;;;;0.06;100.00;98683.97;6131974;23;20659;-78
2022/11/21 00:15:21;;;;;;;13.63;9.90;;;;;;;0.03;100.00;98679.06;6156925;23;20285;-79
2022/11/21 00:17:48;;;;;;;12.73;10.23;;;;;;;-0.05;100.00;98672.03;6157843;23;20215;-78
2022/11/21 00:20:15;;;;;;;11.03;9.00;;;;;;;-0.07;100.00;98679.31;6157395;23;20207;-78
2022/11/21 00:22:42;;;;;;;11.70;9.23;;;;;;;-0.11;100.00;98674.56;6155969;23;20202;-79
2022/11/21 00:25:09;;;;;;;14.03;10.03;;;;;;;-0.19;100.00;98675.44;6157525;23;20206;-78
2022/11/21 00:27:35;;;;;;;15.97;9.53;;;;;;;-0.23;100.00;98666.22;6155727;23;20217;-78
2022/11/21 00:30:03;;;;;;;13.43;9.30;;;;;;;-0.27;100.00;98666.75;6154995;23;20207;-78
2022/11/21 00:32:30;;;;;;;10.63;8.53;;;;;;;-0.26;100.00;98669.22;6180289;23;20203;-78
2022/11/21 00:34:57;;;;;;;12.37;7.63;;;;;;;-0.21;100.00;98666.06;6157004;23;20229;-78
2022/11/21 00:37:23;;;;;;;9.93;8.13;;;;;;;-0.27;100.00;98658.84;6158151;23;20207;-78
2022/11/21 00:39:50;;;;;;;10.70;8.37;;;;;;;-0.29;100.00;98658.22;6158285;23;20209;-78
2022/11/21 00:42:16;;;;;;;11.17;8.30;;;;;;;-0.32;100.00;98656.75;6157453;23;20206;-78
2022/11/21 00:44:43;;;;;;;9.27;7.47;;;;;;;-0.36;100.00;98654.63;6157702;23;20211;-78
2022/11/21 00:47:10;;;;;;;9.10;7.40;;;;;;;-0.40;100.00;98664.69;6157570;23;20202;-78
2022/11/21 00:49:36;;;;;;;9.47;7.90;;;;;;;-0.44;100.00;98660.78;6157623;23;20209;-78
2022/11/21 00:52:03;;;;;;;8.83;7.20;;;;;;;-0.38;100.00;98657.47;6156790;23;20202;-78
2022/11/21 00:54:29;;;;;;;9.43;7.07;;;;;;;-0.36;100.00;98654.63;6156852;23;20687;-78
2022/11/21 00:56:56;;;;;;;9.93;7.10;;;;;;;-0.39;100.00;98650.56;6179762;23;20225;-78
2022/11/21 00:59:22;;;;;;;8.30;7.13;;;;;;;-0.42;100.00;98647.47;6156482;23;20263;-79
2022/11/21 01:01:49;;;;;;;8.73;7.00;;;;;;;-0.43;100.00;98656.34;6156669;23;20293;-78
2022/11/21 01:04:15;;;;;;;8.43;6.33;;;;;;;-0.49;100.00;98640.25;6156644;23;20210;-78
2022/11/21 01:06:42;;;;;;;7.97;6.50;;;;;;;-0.42;100.00;98643.00;6155810;23;20205;-78
2022/11/21 01:09:09;;;;;;;9.57;7.07;;;;;;;-0.43;100.00;98644.00;6157425;23;20199;-78
2022/11/21 01:11:36;;;;;;;7.30;6.10;;;;;;;-0.40;100.00;98638.38;6156765;23;20209;-78
2022/11/21 01:14:02;;;;;;;11.30;6.87;;;;;;;-0.45;100.00;98627.56;6156576;23;20194;-77
2022/11/21 01:16:30;;;;;;;7.70;6.20;;;;;;;-0.40;100.00;98625.22;6156889;23;20640;-78
2022/11/21 01:18:57;;;;;;;10.53;6.63;;;;;;;-0.34;100.00;98621.91;6155210;23;20210;-78
2022/11/21 01:21:26;;;;;;;8.53;6.17;;;;;;;-0.39;100.00;98611.06;6156554;23;20210;-82
2022/11/21 01:23:53;;;;;;;9.20;6.20;;;;;;;-0.40;100.00;98604.16;6179622;23;20214;-79
2022/11/21 01:26:21;;;;;;;7.80;5.87;;;;;;;-0.33;100.00;98614.84;6179369;23;20207;-78
2022/11/21 01:28:49;;;;;;;8.17;6.07;;;;;;;-0.44;100.00;98610.78;6156601;23;20660;-79
2022/11/21 01:31:22;;;;;;;7.43;6.20;;;;;;;-0.42;100.00;98610.63;6178353;23;20214;-79
2022/11/21 01:33:49;;;;;;;7.03;5.67;;;;;;;-0.39;100.00;98607.63;6157059;23;20207;-78
2022/11/21 01:36:21;;;;;;;7.37;5.90;;;;;;;-0.38;100.00;98601.38;6154980;23;20722;-78
2022/11/21 01:38:49;;;;;;;8.63;5.63;;;;;;;-0.39;100.00;98602.34;6157751;23;20207;-78
2022/11/21 01:41:23;;;;;;;8.47;5.83;;;;;;;-0.35;100.00;98599.19;6157851;23;20225;-78
2022/11/21 01:43:50;;;;;;;7.13;5.40;;;;;;;-0.34;100.00;98592.94;6145671;23;20229;-78
2022/11/21 01:46:18;;;;;;;7.10;5.60;;;;;;;-0.32;100.00;98598.84;6154250;23;20603;-78
2022/11/21 01:48:59;;;;;;;7.23;5.77;;;;;;;-0.36;100.00;98592.28;6155427;23;20210;-78
2022/11/21 01:51:34;;;;;;;7.07;5.80;;;;;;;-0.37;100.00;98588.03;6155304;23;20213;-78
2022/11/21 01:54:12;;;;;;;6.13;5.27;;;;;;;-0.28;100.00;98602.75;6155733;23;20715;-78
2022/11/21 01:56:44;;;;;;;6.97;5.17;;;;;;;-0.31;100.00;98589.97;6179527;23;20644;-78
2022/11/21 01:59:16;;;;;;;8.20;5.30;;;;;;;-0.30;100.00;98586.34;6178048;23;20207;-79
2022/11/21 02:01:43;;;;;;;6.03;4.77;;;;;;;-0.34;100.00;98589.50;6178425;23;20206;-78
2022/11/21 02:04:10;;;;;;;6.80;4.93;;;;;;;-0.42;100.00;98571.16;6179266;23;20269;-78
2022/11/21 02:06:36;;;;;;;8.03;5.47;;;;;;;-0.37;100.00;98579.34;6179829;23;20203;-80
2022/11/21 02:09:04;;;;;;;6.53;5.00;;;;;;;-0.47;100.00;98569.81;6130528;23;20682;-78
2022/11/21 02:11:40;;;;;;;5.97;5.07;;;;;;;-0.54;100.00;98573.34;6155346;23;20214;-78
2022/11/21 02:14:08;;;;;;;8.30;5.05;;;;;;;-0.55;100.00;98574.34;6143251;23;20214;-78
2022/11/21 02:16:34;;;;;;;7.60;4.87;;;;;;;-0.64;100.00;98562.22;6155902;23;20190;-78
2022/11/21 02:19:01;;;;;;;6.47;4.93;;;;;;;-0.64;100.00;98567.50;6156392;23;20249;-78
2022/11/21 02:21:37;;;;;;;4.83;4.30;;;;;;;-0.68;100.00;98566.19;6179560;23;20207;-79
2022/11/21 02:24:16;;;;;;;6.07;4.20;;;;;;;-0.64;100.00;98560.41;6178661;23;20213;-78
2022/11/21 02:26:44;;;;;;;5.83;4.23;;;;;;;-0.69;100.00;98552.22;6154831;23;20553;-79
2022/11/21 02:29:11;;;;;;;6.40;4.30;;;;;;;-0.76;100.00;98553.94;6155183;23;20206;-78
2022/11/21 02:31:38;;;;;;;6.17;3.87;;;;;;;-0.70;100.00;98541.91;6155433;23;20277;-78
2022/11/21 02:34:05;;;;;;;4.40;3.90;;;;;;;-0.65;100.00;98537.72;6155283;23;20546;-78
2022/11/21 02:36:43;;;;;;;4.47;3.50;;;;;;;-0.57;100.00;98529.81;6156316;23;20257;-78
2022/11/21 02:39:21;;;;;;;5.17;3.50;;;;;;;-0.55;100.00;98516.44;6155307;23;20203;-79
2022/11/21 02:42:08;;;;;;;4.97;3.73;;;;;;;-0.51;100.00;98504.56;6179347;23;20220;-79
2022/11/21 02:44:48;;;;;;;3.50;3.13;;;;;;;-0.42;100.00;98505.34;6155616;23;20285;-79
2022/11/21 02:47:15;;;;;;;3.90;3.40;;;;;;;-0.41;100.00;98509.59;6155429;23;20253;-78
2022/11/21 02:50:14;;;;;;;4.43;3.17;;;;;;;-0.54;100.00;98502.31;6154112;23;20211;-78
2022/11/21 02:52:41;;;;;;;5.20;3.70;;;;;;;-0.50;100.00;98500.94;6153313;23;20262;-78
2022/11/21 02:55:08;;;;;;;3.83;3.40;;;;;;;-0.49;100.00;98498.16;6178354;23;20250;-79
2022/11/21 02:57:34;;;;;;;4.90;3.53;;;;;;;-0.51;100.00;98507.22;6155597;23;20242;-79
2022/11/21 03:00:02;;;;;;;5.37;3.70;;;;;;;-0.42;100.00;98508.78;6154915;23;20686;-78
2022/11/21 03:02:29;;;;;;;4.47;3.37;;;;;;;-0.42;100.00;98513.25;6155532;23;20648;-78
2022/11/21 03:04:55;;;;;;;3.90;3.10;;;;;;;-0.38;100.00;98520.63;6157311;23;20214;-79
2022/11/21 03:07:22;;;;;;;4.80;3.17;;;;;;;-0.35;100.00;98522.88;6157413;23;20211;-78
2022/11/21 03:09:49;;;;;;;4.10;3.20;;;;;;;-0.22;100.00;98530.16;6155763;23;20710;-79
2022/11/21 03:12:15;;;;;;;3.63;2.80;;;;;;;-0.13;100.00;98526.47;6156573;23;20203;-79
2022/11/21 03:14:42;;;;;;;3.30;2.90;;;;;;;-0.05;100.00;98534.31;6157583;23;20203;-78
2022/11/21 03:17:08;;;;;;;3.20;2.70;;;;;;;0.06;100.00;98522.50;6157831;23;20202;-79
2022/11/21 03:19:35;;;;;;;2.87;2.57;;;;;;;0.25;100.00;98524.63;6156224;23;20207;-78
2022/11/21 03:22:02;;;;;;;3.27;2.73;;;;;;;0.25;100.00;98514.91;6156871;23;20202;-78
2022/11/21 03:24:29;;;;;;;3.40;2.83;;;;;;;0.35;100.00;98517.28;6156549;23;20242;-78
2022/11/21 03:26:55;;;;;;;4.37;2.90;;;;;;;0.41;100.00;98517.38;6155493;23;20273;-78
2022/11/21 03:29:22;;;;;;;2.97;2.67;;;;;;;0.49;100.00;98518.25;6157030;23;20232;-78
2022/11/21 03:31:49;;;;;;;3.07;2.77;;;;;;;0.54;100.00;98515.91;6155755;23;21146;-79
2022/11/21 03:34:15;;;;;;;4.33;3.13;;;;;;;0.58;100.00;98527.72;6155000;23;20206;-79
2022/11/21 03:36:42;;;;;;;3.37;3.07;;;;;;;0.60;100.00;98525.72;6158170;23;20214;-79
2022/11/21 03:39:09;;;;;;;3.20;2.90;;;;;;;0.60;100.00;98529.19;6157884;23;20210;-79
2022/11/21 03:41:35;;;;;;;3.63;3.33;;;;;;;0.65;100.00;98526.81;6155937;23;20211;-79
2022/11/21 03:44:05;;;;;;;3.20;2.90;;;;;;;0.77;100.00;98520.06;6157976;23;20206;-79
2022/11/21 03:46:33;;;;;;;2.43;2.23;;;;;;;0.81;100.00;98516.06;6156582;23;20249;-80
2022/11/21 03:49:00;;;;;;;2.90;2.40;;;;;;;0.98;100.00;98515.84;6156112;23;20233;-79
2022/11/21 03:51:27;;;;;;;4.53;2.60;;;;;;;1.01;100.00;98507.56;6160140;23;20228;-78
2022/11/21 03:53:54;;;;;;;4.57;2.47;;;;;;;0.99;100.00;98501.63;6155702;23;20206;-79
2022/11/21 03:56:21;;;;;;;2.17;1.97;;;;;;;1.02;100.00;98499.47;6156859;23;20206;-79
2022/11/21 03:58:47;;;;;;;3.03;2.57;;;;;;;1.03;100.00;98487.88;6156826;23;20253;-78
2022/11/21 04:01:14;;;;;;;3.10;2.70;;;;;;;0.98;100.00;98476.28;6156280;23;20528;-79
2022/11/21 04:03:42;;;;;;;3.00;2.60;;;;;;;1.06;100.00;98487.53;6157273;23;20187;-79
2022/11/21 04:06:09;;;;;;;3.53;2.93;;;;;;;1.03;100.00;98489.72;6154948;23;20214;-78
2022/11/21 04:08:36;;;;;;;3.07;2.77;;;;;;;1.06;100.00;98506.00;6156869;23;20206;-78
2022/11/21 04:11:03;;;;;;;4.57;3.00;;;;;;;1.19;100.00;98510.59;6155196;23;20261;-79
2022/11/21 04:13:29;;;;;;;4.17;3.77;;;;;;;1.18;100.00;98514.22;6155094;23;20207;-79
2022/11/21 04:15:56;;;;;;;4.03;3.40;;;;;;;1.14;100.00;98510.34;6155909;23;20221;-79
2022/11/21 04:18:23;;;;;;;3.93;3.47;;;;;;;1.33;100.00;98520.28;6155957;23;20203;-78
2022/11/21 04:20:57;;;;;;;3.37;2.93;;;;;;;1.26;100.00;98524.69;6156806;23;20199;-79
2022/11/21 04:23:24;;;;;;;3.97;3.57;;;;;;;1.31;100.00;98523.09;6156753;23;20276;-79
2022/11/21 04:25:51;;;;;;;3.50;2.90;;;;;;;1.29;100.00;98530.41;6157263;23;20686;-78
2022/11/21 04:28:18;;;;;;;3.30;2.50;;;;;;;1.38;100.00;98523.19;6154941;23;20573;-78
2022/11/21 04:30:44;;;;;;;3.57;2.43;;;;;;;1.47;100.00;98513.31;6168502;23;20249;-78
2022/11/21 04:33:13;;;;;;;3.10;2.63;;;;;;;1.58;100.00;98518.09;6170216;23;20203;-79
2022/11/21 04:35:41;;;;;;;4.10;3.17;;;;;;;1.61;100.00;98523.81;6156092;23;20202;-78
2022/11/21 04:38:08;;;;;;;4.20;2.97;;;;;;;1.70;100.00;98514.75;6157505;23;20214;-78
2022/11/21 04:40:35;;;;;;;4.27;3.20;;;;;;;1.71;100.00;98519.03;6158110;23;20250;-80
2022/11/21 04:43:02;;;;;;;4.33;3.50;;;;;;;1.71;100.00;98534.06;6180402;23;20524;-79
2022/11/21 04:45:29;;;;;;;5.17;3.27;;;;;;;1.79;100.00;98539.19;6156632;23;20203;-79
2022/11/21 04:47:56;;;;;;;6.20;5.60;;;;;;;1.86;100.00;98545.38;6180883;23;20187;-79
2022/11/21 04:50:22;;;;;;;4.30;3.90;;;;;;;1.92;100.00;98552.50;6156903;23;20211;-78
2022/11/21 04:52:54;;;;;;;3.50;3.20;;;;;;;1.97;100.00;98558.03;6156915;23;20265;-78
2022/11/21 04:55:26;;;;;;;3.43;2.97;;;;;;;2.09;100.00;98563.63;6180428;23;20199;-79
2022/11/21 04:57:53;;;;;;;4.07;2.80;;;;;;;2.06;100.00;98559.53;6179873;23;20276;-79
2022/11/21 05:00:20;;;;;;;2.83;2.53;;;;;;;2.10;100.00;98560.00;6179581;23;20207;-78
2022/11/21 05:02:50;;;;;;;2.40;2.20;;;;;;;2.12;100.00;98556.13;6155654;23;20211;-79
2022/11/21 05:05:16;;;;;;;2.80;2.50;;;;;;;2.14;100.00;98550.66;6146114;23;20210;-79
2022/11/21 05:07:43;;;;;;;2.47;2.20;;;;;;;2.20;100.00;98553.34;6165961;23;20210;-79
2022/11/21 05:10:10;;;;;;;2.57;2.17;;;;;;;2.24;100.00;98551.13;6155571;23;20213;-78
2022/11/21 05:15:22;;;;;;;2.60;2.23;;;;;;;2.26;100.00;98545.66;6157683;23;20548;-79
2022/11/21 05:17:50;;;;;;;2.40;2.10;;;;;;;2.25;100.00;98542.19;6158966;23;20190;-79
2022/11/21 05:20:17;;;;;;;2.77;2.07;;;;;;;2.27;100.00;98531.44;6180176;23;20210;-79
2022/11/21 05:22:48;;;;;;;3.73;2.20;;;;;;;2.23;100.00;98538.94;6157564;23;20202;-79
2022/11/21 05:25:15;;;;;;;2.30;2.07;;;;;;;2.27;100.00;98526.97;6158157;23;20274;-79
2022/11/21 05:27:42;;;;;;;2.70;2.10;;;;;;;2.28;100.00;98533.09;6156771;23;20209;-79
2022/11/21 05:30:10;;;;;;;2.70;2.50;;;;;;;2.29;100.00;98532.06;6154865;23;20217;-79
2022/11/21 05:32:36;;;;;;;2.67;2.30;;;;;;;2.27;100.00;98531.44;6181110;23;20187;-79
2022/11/21 05:35:03;;;;;;;3.00;2.30;;;;;;;2.36;100.00;98527.63;6157917;23;20198;-80
2022/11/21 05:37:30;;;;;;;2.67;2.47;;;;;;;2.39;100.00;98538.63;6159165;23;20206;-79
2022/11/21 05:39:56;;;;;;;2.93;2.63;;;;;;;2.36;100.00;98540.84;6159688;23;20206;-79
2022/11/21 05:43:44;;;;;;;2.53;2.33;;;;;;;2.40;100.00;98531.53;6158600;23;20194;-79
2022/11/21 05:45:09;;;;;;;6.53;4.20;;;;;;;2.33;100.00;98530.69;6158832;23;20302;-79
2022/11/21 05:47:36;;;;;;;4.80;3.80;;;;;;;2.30;100.00;98523.94;6157886;23;20206;-79
2022/11/21 05:50:03;;;;;;;6.37;4.67;;;;;;;2.31;100.00;98525.56;6157109;23;20206;-79
2022/11/21 05:52:30;;;;;;;6.53;5.07;;;;;;;2.33;100.00;98533.31;6157900;23;20203;-79
2022/11/21 05:54:56;;;;;;;4.80;4.07;;;;;;;2.30;100.00;98528.41;6157233;23;20202;-79
2022/11/21 05:57:23;;;;;;;4.30;3.77;;;;;;;2.32;100.00;98503.44;6157542;23;20222;-79
2022/11/21 05:59:49;;;;;;;4.40;4.00;;;;;;;2.27;100.00;98505.84;6157547;23;20222;-79
2022/11/21 06:05:03;;;;;;;6.13;4.40;;;;;;;2.31;100.00;98515.00;6127339;23;20493;-79
2022/11/21 06:07:30;;;;;;;5.17;3.90;;;;;;;2.22;100.00;98513.53;6158117;23;20207;-79
2022/11/21 06:09:56;;;;;;;5.33;4.13;;;;;;;2.14;100.00;98525.06;6166852;23;20202;-79
2022/11/21 06:12:23;;;;;;;7.57;3.90;;;;;;;2.18;100.00;98509.63;6158357;23;20199;-80
2022/11/21 06:14:51;;;;;;;4.57;4.03;;;;;;;2.17;100.00;98514.09;6153104;23;20210;-79
2022/11/21 06:17:17;;;;;;;4.70;4.10;;;;;;;2.10;100.00;98499.22;6156958;23;20250;-79
2022/11/21 06:19:44;;;;;;;7.27;4.40;;;;;;;2.14;100.00;98503.94;6158181;23;20541;-79
2022/11/21 06:22:11;;;;;;;5.33;4.83;;;;;;;2.22;100.00;98505.59;6155601;23;20210;-78
2022/11/21 06:24:37;;;;;;;7.23;5.90;;;;;;;2.24;100.00;98500.91;6157187;23;20229;-79
2022/11/21 06:27:04;;;;;;;8.57;5.93;;;;;;;2.28;100.00;98504.00;6157031;23;20510;-78
2022/11/21 06:29:30;;;;;;;7.23;6.17;;;;;;;2.27;100.00;98502.38;6155639;23;20690;-79
2022/11/21 06:31:57;;;;;;;5.67;4.90;;;;;;;2.24;100.00;98502.78;6180703;23;20203;-79
2022/11/21 06:34:25;;;;;;;5.53;4.80;;;;;;;2.24;100.00;98495.63;6148011;23;20204;-79
2022/11/21 06:36:53;;;;;;;4.80;4.10;;;;;;;2.25;100.00;98491.97;6177885;23;20222;-79
2022/11/21 06:39:19;;;;;;;4.40;3.80;;;;;;;2.30;100.00;98497.50;6161011;23;20215;-79
2022/11/21 06:41:49;;;;;;;4.73;3.37;;;;;;;2.28;100.00;98499.53;6161033;23;20207;-78
2022/11/21 06:44:17;;;;;;;3.60;3.17;;;;;;;2.31;100.00;98500.97;6160702;23;20277;-79
2022/11/21 06:46:44;;;;;;;4.00;3.60;;;;;;;2.39;100.00;98498.97;6159975;23;20202;-78
2022/11/21 06:49:16;;;;;;;3.87;3.47;;;;;;;2.42;100.00;98503.06;6159162;23;20202;-79
2022/11/21 06:51:43;;;;;;;5.60;3.83;;;;;;;2.45;100.00;98500.84;6182954;23;20230;-80
2022/11/21 06:54:10;;;;;;;3.83;3.30;;;;;;;2.54;100.00;98494.38;6159320;23;20527;-80
2022/11/21 06:56:42;;;;;;;5.07;3.80;;;;;;;2.61;100.00;98515.59;6159273;23;20722;-80
2022/11/21 06:59:08;;;;;;;3.87;3.23;;;;;;;2.70;100.00;98521.53;6158791;23;20538;-80
2022/11/21 07:01:35;;;;;;;4.90;3.60;;;;;;;2.73;100.00;98519.31;6163627;23;20229;-79
2022/11/21 07:04:02;;;;;;;4.93;3.70;;;;;;;2.79;100.00;98520.34;6163462;23;20211;-78
2022/11/21 07:06:28;;;;;;;6.20;4.13;;;;;;;2.88;100.00;98516.53;6159454;23;20238;-79
2022/11/21 07:08:55;;;;;;;5.03;3.63;;;;;;;2.90;100.00;98522.41;6159688;23;20198;-79
2022/11/21 07:11:42;;;;;;;4.57;3.13;;;;;;;3.00;100.00;98525.50;6158607;23;20211;-79
2022/11/21 07:14:11;;;;;;;3.90;2.80;;;;;;;3.05;100.00;98500.09;6160308;23;20206;-79
2022/11/21 07:16:38;;;;;;;5.90;3.03;;;;;;;3.10;100.00;98502.16;6160496;23;20210;-80
2022/11/21 07:19:05;;;;;;;5.33;3.40;;;;;;;3.17;100.00;98499.53;6160246;23;20581;-79
2022/11/21 07:21:31;;;;;;;5.20;3.63;;;;;;;3.29;100.00;98500.56;6183615;23;20639;-79
2022/11/21 07:23:58;;;;;;;4.30;3.33;;;;;;;3.30;100.00;98508.31;6160713;23;20238;-78
2022/11/21 07:26:25;;;;;;;5.67;3.30;;;;;;;3.38;100.00;98512.59;6157984;23;20170;-79
2022/11/21 07:28:51;;;;;;;7.67;5.40;;;;;;;3.53;100.00;98502.66;6157802;23;20619;-79
2022/11/21 07:31:18;;;;;;;11.60;7.00;;;;;;;3.62;100.00;98490.03;6156132;23;20492;-78
2022/11/21 07:33:46;;;;;;;7.17;4.80;;;;;;;3.68;100.00;98495.34;6157876;23;20193;-79
2022/11/21 07:36:13;;;;;;;14.33;10.13;;;;;;;3.77;100.00;98493.31;6156776;23;20671;-79
2022/11/21 07:38:40;;;;;;;9.77;6.93;;;;;;;3.81;100.00;98499.81;6158252;23;20163;-79
2022/11/21 07:41:07;;;;;;;7.73;6.37;;;;;;;3.80;100.00;98498.19;6158110;23;20167;-79
2022/11/21 07:43:34;;;;;;;8.10;7.03;;;;;;;3.89;100.00;98494.31;6157820;23;20164;-79
2022/11/21 07:46:00;;;;;;;6.17;5.27;;;;;;;4.02;100.00;98498.78;6157777;23;20253;-79
2022/11/21 07:48:27;;;;;;;6.43;4.80;;;;;;;4.12;100.00;98501.84;6157364;23;20501;-78
2022/11/21 07:50:54;;;;;;;6.03;4.63;;;;;;;4.18;100.00;98501.03;6158142;23;20169;-78
2022/11/21 07:53:20;;;;;;;5.37;4.80;;;;;;;4.27;100.00;98499.78;6158540;23;20193;-78
2022/11/21 07:55:47;;;;;;;6.70;4.50;;;;;;;4.40;100.00;98499.75;6159684;23;20163;-80
2022/11/21 07:58:15;;;;;;;6.47;4.83;;;;;;;4.46;100.00;98501.59;6157606;23;20171;-78
2022/11/21 08:00:42;;;;;;;5.60;4.90;;;;;;;4.53;100.00;98498.91;6131797;23;20178;-78
2022/11/21 08:03:10;;;;;;;5.90;5.20;;;;;;;4.57;100.00;98500.13;6157638;23;20162;-79
2022/11/21 08:05:39;;;;;;;6.93;5.93;;;;;;;4.63;100.00;98488.66;6157528;23;20551;-77
2022/11/21 08:08:06;;;;;;;7.20;6.40;;;;;;;4.60;100.00;98481.13;6157632;23;20246;-78
2022/11/21 08:10:33;;;;;;;7.33;5.83;;;;;;;4.68;100.00;98491.50;6157400;23;20175;-78
2022/11/21 08:12:59;;;;;;;6.80;5.53;;;;;;;4.79;100.00;98497.00;6181506;23;20475;-79
2022/11/21 08:15:26;;;;;;;6.03;5.43;;;;;;;4.87;100.00;98493.28;6157556;23;20536;-78
2022/11/21 08:17:52;;;;;;;6.10;5.20;;;;;;;4.99;100.00;98498.75;6155832;23;20194;-78
2022/11/21 08:20:19;;;;;;;5.60;5.10;;;;;;;5.07;100.00;98491.38;6157334;23;20167;-78
2022/11/21 08:22:46;;;;;;;6.00;5.40;;;;;;;5.18;100.00;98490.66;6157059;23;20163;-78
2022/11/21 08:25:12;;;;;;;6.87;5.17;;;;;;;5.24;100.00;98500.44;6156081;23;20203;-78
2022/11/21 08:27:39;;;;;;;7.23;5.30;;;;;;;5.24;100.00;98500.44;6156164;23;20207;-80
2022/11/21 08:30:08;;;;;;;5.87;5.27;;;;;;;5.27;100.00;98494.72;6155309;23;20210;-80
2022/11/21 08:32:34;;;;;;;5.80;5.20;;;;;;;5.41;100.00;98495.47;6156108;23;20215;-80
2022/11/21 08:35:01;;;;;;;7.10;5.63;;;;;;;5.51;100.00;98493.13;6156112;23;20214;-80
2022/11/21 08:37:30;;;;;;;6.17;5.17;;;;;;;5.64;100.00;98490.41;6157440;23;20205;-80
2022/11/21 08:40:01;;;;;;;7.07;5.10;;;;;;;5.62;100.00;98486.31;6179587;23;20206;-80
2022/11/21 08:42:27;;;;;;;5.90;4.70;;;;;;;5.64;100.00;98493.06;6156692;23;20211;-80
2022/11/21 08:44:54;;;;;;;5.77;5.27;;;;;;;5.60;100.00;98486.53;6156457;23;20215;-81
2022/11/21 08:47:21;;;;;;;6.50;5.20;;;;;;;5.64;100.00;98479.78;6154669;23;20210;-81
2022/11/21 08:49:47;;;;;;;6.20;5.03;;;;;;;5.66;100.00;98482.19;6156459;23;20210;-78
2022/11/21 08:52:16;;;;;;;6.23;5.13;;;;;;;5.71;100.00;98483.19;6154415;23;20237;-79
2022/11/21 08:54:43;;;;;;;7.60;5.87;;;;;;;5.78;100.00;98490.31;6155663;23;20664;-80
2022/11/21 08:57:10;;;;;;;6.40;5.60;;;;;;;5.82;100.00;98487.00;6153675;23;20209;-80
2022/11/21 08:59:37;;;;;;;7.07;5.70;;;;;;;5.88;100.00;98485.34;6155494;23;20214;-81
2022/11/21 09:02:04;;;;;;;10.60;5.90;;;;;;;5.90;100.00;98480.63;6155168;23;20702;-81
2022/11/21 09:04:31;;;;;;;6.97;5.80;;;;;;;5.96;100.00;98474.44;6155493;23;20552;-80
2022/11/21 09:06:57;;;;;;;8.00;5.77;;;;;;;6.02;100.00;98492.19;6158071;23;20211;-81
2022/11/21 09:09:24;;;;;;;6.30;5.47;;;;;;;6.04;100.00;98488.28;6187927;23;20241;-82
2022/11/21 09:11:51;;;;;;;8.13;5.67;;;;;;;6.12;100.00;98485.31;6164631;23;20215;-81
2022/11/21 09:19:49;;;;;;;8.80;6.17;;;;;;;6.43;100.00;98481.78;6163138;23;20207;-82
2022/11/21 09:22:16;;;;;;;6.97;5.70;;;;;;;6.51;100.00;98472.66;6162110;23;20213;-81
2022/11/21 09:24:42;;;;;;;6.83;5.40;;;;;;;6.59;100.00;98475.03;6162138;23;20199;-81
2022/11/21 09:27:09;;;;;;;5.87;5.27;;;;;;;6.67;100.00;98479.25;6161553;23;20212;-81
2022/11/21 09:29:35;;;;;;;6.27;5.63;;;;;;;6.71;100.00;98473.28;6162977;23;20211;-82
2022/11/21 09:32:02;;;;;;;6.47;5.10;;;;;;;6.83;100.00;98475.97;6158606;23;20672;-79
2022/11/21 09:34:30;;;;;;;6.60;5.50;;;;;;;6.94;100.00;98486.72;6154327;23;20206;-80
2022/11/21 09:36:57;;;;;;;6.23;5.40;;;;;;;6.97;100.00;98482.78;6156475;23;20202;-80
2022/11/21 09:39:24;;;;;;;7.20;5.37;;;;;;;7.05;100.00;98469.13;6156541;23;20210;-80
2022/11/21 09:42:20;;;;;;;7.93;5.93;;;;;;;7.21;100.00;98471.19;6155335;23;20702;-80
2022/11/21 09:44:57;;;;;;;8.17;5.83;;;;;;;7.31;100.00;98463.47;6126899;23;20214;-79
2022/11/21 09:47:27;;;;;;;8.63;5.80;;;;;;;7.44;100.00;98459.78;6154838;23;20210;-80
2022/11/21 09:50:36;;;;;;;6.47;5.33;;;;;;;7.41;100.00;98457.59;6154940;23;20212;-80
2022/11/21 09:53:17;;;;;;;8.17;6.70;;;;;;;7.34;100.00;98463.00;6135198;23;20679;-80
2022/11/21 09:55:59;;;;;;;7.30;5.80;;;;;;;7.29;100.00;98457.53;6155498;23;20675;-80
2022/11/21 09:58:49;;;;;;;7.53;5.87;;;;;;;7.29;100.00;98448.72;6151432;23;20709;-80
2022/11/21 10:01:16;;;;;;;7.87;5.73;;;;;;;7.26;100.00;98450.00;6150552;23;20220;-80
2022/11/21 10:03:47;;;;;;;6.73;5.50;;;;;;;7.27;100.00;98448.97;6178051;23;20214;-80
2022/11/21 10:06:23;;;;;;;8.13;5.70;;;;;;;7.41;100.00;98461.06;6154354;23;20241;-79
2022/11/21 10:09:11;;;;;;;6.40;5.73;;;;;;;7.53;100.00;98461.09;6153672;23;20249;-80
2022/11/21 10:15:08;;;;;;;7.10;5.67;;;;;;;7.52;100.00;98452.28;6175746;23;20213;-79
2022/11/21 10:17:48;;;;;;;7.23;5.60;;;;;;;7.45;100.00;98440.09;6156608;23;20300;-80
2022/11/21 10:20:47;;;;;;;9.23;6.37;;;;;;;7.43;100.00;98427.00;6156269;23;20277;-79
2022/11/21 10:23:38;;;;;;;7.77;6.17;;;;;;;7.42;100.00;98424.56;6155245;23;20240;-79
2022/11/21 10:26:16;;;;;;;9.90;6.70;;;;;;;7.45;100.00;98419.59;6180855;23;20204;-79
2022/11/21 10:28:57;;;;;;;7.33;6.50;;;;;;;7.53;100.00;98418.44;6180374;23;20517;-80
2022/11/21 10:31:26;;;;;;;8.07;5.67;;;;;;;7.56;100.00;98417.19;6155911;23;20211;-80
2022/11/21 10:33:55;;;;;;;9.37;8.23;;;;;;;7.70;100.00;98413.28;6155342;23;20671;-79
2022/11/21 10:36:26;;;;;;;7.03;6.20;;;;;;;7.83;100.00;98419.19;6170515;23;20246;-80
2022/11/21 10:38:58;;;;;;;7.73;6.30;;;;;;;7.90;100.00;98413.72;6155602;23;20214;-80
2022/11/21 10:41:43;;;;;;;8.60;6.77;;;;;;;8.05;100.00;98416.75;6180364;23;20207;-80
2022/11/21 10:46:59;;;;;;;6.70;5.40;;;;;;;8.47;100.00;98419.28;6158695;23;20230;-81
2022/11/21 10:49:31;;;;;;;7.17;5.60;;;;;;;8.76;100.00;98421.78;6162001;23;20209;-80
2022/11/21 10:52:10;;;;;;;9.77;5.87;;;;;;;9.13;100.00;98416.88;6159301;23;20668;-80
2022/11/21 10:55:04;;;;;;;8.57;5.00;;;;;;;9.47;100.00;98414.25;6166888;23;20206;-82
2022/11/21 10:57:49;;;;;;;6.67;4.60;;;;;;;9.71;100.00;98413.84;6175692;23;20215;-83
2022/11/21 11:00:19;;;;;;;5.17;4.17;;;;;;;9.91;100.00;98409.88;6174793;23;20680;-80
2022/11/21 11:02:54;;;;;;;5.53;4.50;;;;;;;10.11;100.00;98410.19;6161557;23;20234;-81
2022/11/21 11:05:23;;;;;;;6.17;4.27;;;;;;;10.29;100.00;98409.13;6167364;23;20210;-82
2022/11/21 11:08:08;;;;;;;6.00;4.03;;;;;;;10.51;100.00;98409.94;6163812;23;20270;-82
2022/11/21 11:11:03;;;;;;;4.20;3.80;;;;;;;10.70;100.00;98405.91;6171013;23;20233;-82
2022/11/21 11:13:33;;;;;;;4.97;3.83;;;;;;;10.78;100.00;98397.41;6164939;23;20222;-82
2022/11/21 11:16:19;;;;;;;4.37;3.97;;;;;;;10.90;100.00;98399.97;6181328;23;20206;-83
2022/11/21 11:18:53;;;;;;;6.43;4.93;;;;;;;10.90;100.00;98403.47;6183290;23;20207;-82
2022/11/21 11:21:24;;;;;;;6.27;4.67;;;;;;;10.88;100.00;98386.81;6182748;23;20206;-83
2022/11/21 11:23:53;;;;;;;5.87;4.73;;;;;;;10.91;100.00;98396.25;6157527;23;20238;-83
2022/11/21 11:26:24;;;;;;;5.63;4.83;;;;;;;10.85;100.00;98392.69;6179153;23;20258;-83
2022/11/21 11:28:51;;;;;;;5.77;4.73;;;;;;;10.85;100.00;98392.69;6156755;23;20288;-83
2022/11/21 11:31:17;;;;;;;4.63;3.70;;;;;;;10.87;100.00;98395.91;6156181;23;20214;-84
2022/11/21 11:33:47;;;;;;;5.27;4.43;;;;;;;10.80;100.00;98397.19;6156962;23;20207;-83
2022/11/21 11:36:21;;;;;;;5.17;4.37;;;;;;;10.68;100.00;98400.00;6156043;23;20207;-84
2022/11/21 11:38:52;;;;;;;6.10;4.00;;;;;;;10.58;100.00;98394.50;6156677;23;20253;-83
2022/11/21 11:47:29;;;;;;;5.27;4.13;;;;;;;10.50;100.00;98395.75;6158220;23;20218;-83
2022/11/21 11:47:29;;;;;;;5.20;3.83;;;;;;;10.29;100.00;98385.03;6158625;23;20675;-82
2022/11/21 11:50:10;;;;;;;5.77;4.20;;;;;;;10.18;100.00;98391.28;6135726;23;20211;-83
2022/11/21 11:52:49;;;;;;;5.13;4.43;;;;;;;10.06;100.00;98397.53;6110916;23;20199;-85
2022/11/21 11:55:38;;;;;;;6.97;4.60;;;;;;;9.96;100.00;98394.72;6163647;23;20234;-84
2022/11/21 11:58:13;;;;;;;8.03;3.90;;;;;;;9.87;100.00;98388.16;6171364;23;20210;-83
2022/11/21 12:00:44;;;;;;;5.80;3.97;;;;;;;9.88;100.00;98397.00;6172688;23;20206;-83